sensor_id;sensor_type;location;lat;lon;timestamp;temperature;humidity
74661;SHT31;63191;39.566;2.654;2023-03-01T00:01:13;8.64;94.66
74661;SHT31;63191;39.566;2.654;2023-03-01T00:03:42;8.66;94.64
74661;SHT31;63191;39.566;2.654;2023-03-01T00:06:08;8.66;94.62
74661;SHT31;63191;39.566;2.654;2023-03-01T00:08:36;8.68;94.66
74661;SHT31;63191;39.566;2.654;2023-03-01T00:11:06;8.69;94.69
74661;SHT31;63191;39.566;2.654;2023-03-01T00:13:37;8.68;94.70
74661;SHT31;63191;39.566;2.654;2023-03-01T00:16:04;8.68;94.75
74661;SHT31;63191;39.566;2.654;2023-03-01T00:18:33;8.70;94.71
74661;SHT31;63191;39.566;2.654;2023-03-01T00:20:59;8.73;94.79
74661;SHT31;63191;39.566;2.654;2023-03-01T00:23:25;8.76;94.77
74661;SHT31;63191;39.566;2.654;2023-03-01T00:25:52;8.79;94.79
74661;SHT31;63191;39.566;2.654;2023-03-01T00:28:19;8.79;94.75
74661;SHT31;63191;39.566;2.654;2023-03-01T00:30:45;8.80;94.78
74661;SHT31;63191;39.566;2.654;2023-03-01T00:33:11;8.79;94.80
74661;SHT31;63191;39.566;2.654;2023-03-01T00:35:38;8.79;94.80
74661;SHT31;63191;39.566;2.654;2023-03-01T00:38:04;8.78;94.80
74661;SHT31;63191;39.566;2.654;2023-03-01T00:40:31;8.79;94.79
74661;SHT31;63191;39.566;2.654;2023-03-01T00:43:00;8.82;94.80
74661;SHT31;63191;39.566;2.654;2023-03-01T00:45:26;8.83;94.77
74661;SHT31;63191;39.566;2.654;2023-03-01T00:47:52;8.85;94.73
74661;SHT31;63191;39.566;2.654;2023-03-01T00:50:18;8.83;94.70
74661;SHT31;63191;39.566;2.654;2023-03-01T00:52:44;8.79;94.70
74661;SHT31;63191;39.566;2.654;2023-03-01T00:55:10;8.76;94.70
74661;SHT31;63191;39.566;2.654;2023-03-01T00:57:36;8.71;94.70
74661;SHT31;63191;39.566;2.654;2023-03-01T01:00:04;8.65;94.68
74661;SHT31;63191;39.566;2.654;2023-03-01T01:02:34;8.60;94.61
74661;SHT31;63191;39.566;2.654;2023-03-01T01:05:00;8.56;94.59
74661;SHT31;63191;39.566;2.654;2023-03-01T01:07:26;8.49;94.52
74661;SHT31;63191;39.566;2.654;2023-03-01T01:09:52;8.45;94.55
74661;SHT31;63191;39.566;2.654;2023-03-01T01:12:17;8.42;94.60
74661;SHT31;63191;39.566;2.654;2023-03-01T01:14:43;8.39;94.66
74661;SHT31;63191;39.566;2.654;2023-03-01T01:17:09;8.36;94.70
74661;SHT31;63191;39.566;2.654;2023-03-01T01:19:35;8.35;94.73
74661;SHT31;63191;39.566;2.654;2023-03-01T01:22:01;8.37;94.80
74661;SHT31;63191;39.566;2.654;2023-03-01T01:24:28;8.40;94.80
74661;SHT31;63191;39.566;2.654;2023-03-01T01:26:54;8.43;94.80
74661;SHT31;63191;39.566;2.654;2023-03-01T01:29:20;8.46;94.80
74661;SHT31;63191;39.566;2.654;2023-03-01T01:31:46;8.45;94.80
74661;SHT31;63191;39.566;2.654;2023-03-01T01:34:16;8.45;94.80
74661;SHT31;63191;39.566;2.654;2023-03-01T01:36:47;8.44;94.80
74661;SHT31;63191;39.566;2.654;2023-03-01T01:39:15;8.43;94.80
74661;SHT31;63191;39.566;2.654;2023-03-01T01:41:41;8.46;94.80
74661;SHT31;63191;39.566;2.654;2023-03-01T01:44:15;8.48;94.79
74661;SHT31;63191;39.566;2.654;2023-03-01T01:46:49;8.51;94.80
74661;SHT31;63191;39.566;2.654;2023-03-01T01:52:17;8.56;94.80
74661;SHT31;63191;39.566;2.654;2023-03-01T01:57:51;8.65;94.79
74661;SHT31;63191;39.566;2.654;2023-03-01T02:00:22;8.67;94.75
74661;SHT31;63191;39.566;2.654;2023-03-01T02:02:59;8.68;94.72
74661;SHT31;63191;39.566;2.654;2023-03-01T02:08:04;8.69;94.62
74661;SHT31;63191;39.566;2.654;2023-03-01T02:10:32;8.68;94.59
74661;SHT31;63191;39.566;2.654;2023-03-01T02:13:00;8.62;94.53
74661;SHT31;63191;39.566;2.654;2023-03-01T02:15:27;8.54;94.50
74661;SHT31;63191;39.566;2.654;2023-03-01T02:17:59;8.45;94.48
74661;SHT31;63191;39.566;2.654;2023-03-01T02:20:29;8.40;94.46
74661;SHT31;63191;39.566;2.654;2023-03-01T02:23:19;8.32;94.41
74661;SHT31;63191;39.566;2.654;2023-03-01T02:28:50;8.26;94.54
74661;SHT31;63191;39.566;2.654;2023-03-01T02:31:18;8.23;94.62
74661;SHT31;63191;39.566;2.654;2023-03-01T02:34:04;8.21;94.69
74661;SHT31;63191;39.566;2.654;2023-03-01T02:36:37;8.22;94.79
74661;SHT31;63191;39.566;2.654;2023-03-01T02:39:13;8.23;94.80
74661;SHT31;63191;39.566;2.654;2023-03-01T02:41:49;8.25;94.80
74661;SHT31;63191;39.566;2.654;2023-03-01T02:44:17;8.27;94.81
74661;SHT31;63191;39.566;2.654;2023-03-01T02:46:46;8.26;94.86
74661;SHT31;63191;39.566;2.654;2023-03-01T02:49:19;8.23;94.86
74661;SHT31;63191;39.566;2.654;2023-03-01T02:54:58;8.11;94.82
74661;SHT31;63191;39.566;2.654;2023-03-01T02:57:34;8.05;94.80
74661;SHT31;63191;39.566;2.654;2023-03-01T03:00:07;8.01;94.80
74661;SHT31;63191;39.566;2.654;2023-03-01T03:02:44;8.00;94.81
74661;SHT31;63191;39.566;2.654;2023-03-01T03:05:16;7.99;94.80
74661;SHT31;63191;39.566;2.654;2023-03-01T03:07:45;7.99;94.80
74661;SHT31;63191;39.566;2.654;2023-03-01T03:10:14;7.98;94.78
74661;SHT31;63191;39.566;2.654;2023-03-01T03:12:44;7.97;94.79
74661;SHT31;63191;39.566;2.654;2023-03-01T03:15:20;7.92;94.77
74661;SHT31;63191;39.566;2.654;2023-03-01T03:17:47;7.88;94.80
74661;SHT31;63191;39.566;2.654;2023-03-01T03:20:15;7.84;94.81
74661;SHT31;63191;39.566;2.654;2023-03-01T03:22:47;7.79;94.90
74661;SHT31;63191;39.566;2.654;2023-03-01T03:25:16;7.75;94.95
74661;SHT31;63191;39.566;2.654;2023-03-01T03:27:44;7.72;95.01
74661;SHT31;63191;39.566;2.654;2023-03-01T03:30:18;7.69;95.06
74661;SHT31;63191;39.566;2.654;2023-03-01T03:32:47;7.70;95.09
74661;SHT31;63191;39.566;2.654;2023-03-01T03:35:18;7.73;95.11
74661;SHT31;63191;39.566;2.654;2023-03-01T03:38:01;7.78;95.13
74661;SHT31;63191;39.566;2.654;2023-03-01T03:40:38;7.83;95.20
74661;SHT31;63191;39.566;2.654;2023-03-01T03:43:12;7.86;95.20
74661;SHT31;63191;39.566;2.654;2023-03-01T03:45:43;7.88;95.29
74661;SHT31;63191;39.566;2.654;2023-03-01T03:48:13;7.89;95.30
74661;SHT31;63191;39.566;2.654;2023-03-01T03:50:40;7.88;95.40
74661;SHT31;63191;39.566;2.654;2023-03-01T03:53:08;7.89;95.40
74661;SHT31;63191;39.566;2.654;2023-03-01T03:55:37;7.90;95.40
74661;SHT31;63191;39.566;2.654;2023-03-01T03:58:09;7.92;95.40
74661;SHT31;63191;39.566;2.654;2023-03-01T04:00:42;7.93;95.37
74661;SHT31;63191;39.566;2.654;2023-03-01T04:03:10;7.91;95.31
74661;SHT31;63191;39.566;2.654;2023-03-01T04:05:38;7.89;95.26
74661;SHT31;63191;39.566;2.654;2023-03-01T04:08:05;7.89;95.20
74661;SHT31;63191;39.566;2.654;2023-03-01T04:10:33;7.89;95.18
74661;SHT31;63191;39.566;2.654;2023-03-01T04:13:02;7.86;95.10
74661;SHT31;63191;39.566;2.654;2023-03-01T04:15:30;7.85;95.01
74661;SHT31;63191;39.566;2.654;2023-03-01T04:17:57;7.85;94.94
74661;SHT31;63191;39.566;2.654;2023-03-01T04:20:25;7.86;94.84
74661;SHT31;63191;39.566;2.654;2023-03-01T04:23:00;7.86;94.69
74661;SHT31;63191;39.566;2.654;2023-03-01T04:25:39;7.85;94.57
74661;SHT31;63191;39.566;2.654;2023-03-01T04:28:07;7.84;94.44
74661;SHT31;63191;39.566;2.654;2023-03-01T04:30:35;7.83;94.25
74661;SHT31;63191;39.566;2.654;2023-03-01T04:33:03;7.85;94.04
74661;SHT31;63191;39.566;2.654;2023-03-01T04:35:34;7.86;93.85
74661;SHT31;63191;39.566;2.654;2023-03-01T04:38:01;7.84;93.72
74661;SHT31;63191;39.566;2.654;2023-03-01T04:40:28;7.83;93.62
74661;SHT31;63191;39.566;2.654;2023-03-01T04:42:54;7.82;93.51
74661;SHT31;63191;39.566;2.654;2023-03-01T04:45:20;7.78;93.49
74661;SHT31;63191;39.566;2.654;2023-03-01T04:47:46;7.72;93.40
74661;SHT31;63191;39.566;2.654;2023-03-01T04:50:13;7.66;93.40
74661;SHT31;63191;39.566;2.654;2023-03-01T04:52:42;7.61;93.41
74661;SHT31;63191;39.566;2.654;2023-03-01T04:55:10;7.58;93.46
74661;SHT31;63191;39.566;2.654;2023-03-01T04:57:36;7.56;93.45
74661;SHT31;63191;39.566;2.654;2023-03-01T05:00:03;7.55;93.48
74661;SHT31;63191;39.566;2.654;2023-03-01T05:05:20;7.48;93.50
74661;SHT31;63191;39.566;2.654;2023-03-01T05:07:51;7.44;93.50
74661;SHT31;63191;39.566;2.654;2023-03-01T05:10:24;7.43;93.51
74661;SHT31;63191;39.566;2.654;2023-03-01T05:12:54;7.45;93.49
74661;SHT31;63191;39.566;2.654;2023-03-01T05:15:22;7.45;93.43
74661;SHT31;63191;39.566;2.654;2023-03-01T05:17:53;7.47;93.40
74661;SHT31;63191;39.566;2.654;2023-03-01T05:20:23;7.46;93.35
74661;SHT31;63191;39.566;2.654;2023-03-01T05:22:51;7.47;93.27
74661;SHT31;63191;39.566;2.654;2023-03-01T05:25:19;7.49;93.21
74661;SHT31;63191;39.566;2.654;2023-03-01T05:27:46;7.51;93.14
74661;SHT31;63191;39.566;2.654;2023-03-01T05:30:14;7.52;93.10
74661;SHT31;63191;39.566;2.654;2023-03-01T05:32:41;7.52;93.03
74661;SHT31;63191;39.566;2.654;2023-03-01T05:35:13;7.51;93.00
74661;SHT31;63191;39.566;2.654;2023-03-01T05:37:45;7.51;92.90
74661;SHT31;63191;39.566;2.654;2023-03-01T05:40:14;7.52;92.72
74661;SHT31;63191;39.566;2.654;2023-03-01T05:42:46;7.53;92.57
74661;SHT31;63191;39.566;2.654;2023-03-01T05:45:20;7.51;92.50
74661;SHT31;63191;39.566;2.654;2023-03-01T05:47:48;7.49;92.50
74661;SHT31;63191;39.566;2.654;2023-03-01T05:50:16;7.47;92.47
74661;SHT31;63191;39.566;2.654;2023-03-01T05:52:45;7.46;92.41
74661;SHT31;63191;39.566;2.654;2023-03-01T05:55:33;7.44;92.40
74661;SHT31;63191;39.566;2.654;2023-03-01T05:58:00;7.41;92.40
74661;SHT31;63191;39.566;2.654;2023-03-01T06:00:28;7.39;92.40
74661;SHT31;63191;39.566;2.654;2023-03-01T06:02:55;7.38;92.41
74661;SHT31;63191;39.566;2.654;2023-03-01T06:05:22;7.39;92.40
74661;SHT31;63191;39.566;2.654;2023-03-01T06:07:49;7.40;92.38
74661;SHT31;63191;39.566;2.654;2023-03-01T06:10:16;7.42;92.30
74661;SHT31;63191;39.566;2.654;2023-03-01T06:12:43;7.42;92.30
74661;SHT31;63191;39.566;2.654;2023-03-01T06:15:11;7.43;92.29
74661;SHT31;63191;39.566;2.654;2023-03-01T06:17:40;7.44;92.21
74661;SHT31;63191;39.566;2.654;2023-03-01T06:20:10;7.44;92.21
74661;SHT31;63191;39.566;2.654;2023-03-01T06:22:43;7.44;92.20
74661;SHT31;63191;39.566;2.654;2023-03-01T06:25:10;7.43;92.19
74661;SHT31;63191;39.566;2.654;2023-03-01T06:27:37;7.45;92.18
74661;SHT31;63191;39.566;2.654;2023-03-01T06:30:04;7.48;92.12
74661;SHT31;63191;39.566;2.654;2023-03-01T06:32:33;7.51;92.03
74661;SHT31;63191;39.566;2.654;2023-03-01T06:34:58;7.56;91.90
74661;SHT31;63191;39.566;2.654;2023-03-01T06:37:24;7.60;91.80
74661;SHT31;63191;39.566;2.654;2023-03-01T06:39:53;7.64;91.77
74661;SHT31;63191;39.566;2.654;2023-03-01T06:42:19;7.70;91.67
74661;SHT31;63191;39.566;2.654;2023-03-01T06:44:45;7.78;91.56
74661;SHT31;63191;39.566;2.654;2023-03-01T06:47:11;7.89;91.44
74661;SHT31;63191;39.566;2.654;2023-03-01T06:49:37;8.03;91.33
74661;SHT31;63191;39.566;2.654;2023-03-01T06:52:02;8.22;91.20
74661;SHT31;63191;39.566;2.654;2023-03-01T06:54:28;8.43;91.08
74661;SHT31;63191;39.566;2.654;2023-03-01T06:56:54;8.67;91.00
74661;SHT31;63191;39.566;2.654;2023-03-01T06:59:20;9.09;90.67
74661;SHT31;63191;39.566;2.654;2023-03-01T07:01:46;9.65;90.06
74661;SHT31;63191;39.566;2.654;2023-03-01T07:04:12;10.24;89.46
74661;SHT31;63191;39.566;2.654;2023-03-01T07:06:38;10.85;88.94
74661;SHT31;63191;39.566;2.654;2023-03-01T07:09:05;11.49;88.40
74661;SHT31;63191;39.566;2.654;2023-03-01T07:11:31;12.08;87.83
74661;SHT31;63191;39.566;2.654;2023-03-01T07:13:57;12.72;87.15
74661;SHT31;63191;39.566;2.654;2023-03-01T07:16:25;13.38;86.39
74661;SHT31;63191;39.566;2.654;2023-03-01T07:18:50;14.06;85.67
74661;SHT31;63191;39.566;2.654;2023-03-01T07:21:18;14.74;84.84
74661;SHT31;63191;39.566;2.654;2023-03-01T07:23:43;15.38;84.00
74661;SHT31;63191;39.566;2.654;2023-03-01T07:26:13;16.03;82.83
74661;SHT31;63191;39.566;2.654;2023-03-01T07:28:39;16.62;81.73
74661;SHT31;63191;39.566;2.654;2023-03-01T07:31:06;17.25;80.92
74661;SHT31;63191;39.566;2.654;2023-03-01T07:33:32;17.83;80.00
74661;SHT31;63191;39.566;2.654;2023-03-01T07:35:58;18.45;79.31
74661;SHT31;63191;39.566;2.654;2023-03-01T07:38:27;19.14;78.48
74661;SHT31;63191;39.566;2.654;2023-03-01T07:40:57;19.79;77.51
74661;SHT31;63191;39.566;2.654;2023-03-01T07:43:26;20.40;76.37
74661;SHT31;63191;39.566;2.654;2023-03-01T07:45:53;20.98;75.28
74661;SHT31;63191;39.566;2.654;2023-03-01T07:48:19;21.46;74.01
74661;SHT31;63191;39.566;2.654;2023-03-01T07:50:44;21.89;72.84
74661;SHT31;63191;39.566;2.654;2023-03-01T07:53:10;22.35;72.02
74661;SHT31;63191;39.566;2.654;2023-03-01T07:55:36;22.84;71.48
74661;SHT31;63191;39.566;2.654;2023-03-01T07:58:02;23.34;70.71
74661;SHT31;63191;39.566;2.654;2023-03-01T08:00:28;23.68;69.92
74661;SHT31;63191;39.566;2.654;2023-03-01T08:02:54;24.16;69.01
74661;SHT31;63191;39.566;2.654;2023-03-01T08:05:20;24.60;68.27
74661;SHT31;63191;39.566;2.654;2023-03-01T08:07:47;25.06;67.62
74661;SHT31;63191;39.566;2.654;2023-03-01T08:10:13;25.50;66.91
74661;SHT31;63191;39.566;2.654;2023-03-01T08:12:39;25.90;66.16
74661;SHT31;63191;39.566;2.654;2023-03-01T08:15:05;26.27;65.72
74661;SHT31;63191;39.566;2.654;2023-03-01T08:17:31;26.63;64.81
74661;SHT31;63191;39.566;2.654;2023-03-01T08:19:57;26.91;64.09
74661;SHT31;63191;39.566;2.654;2023-03-01T08:22:23;27.15;63.72
74661;SHT31;63191;39.566;2.654;2023-03-01T08:24:48;27.25;61.48
74661;SHT31;63191;39.566;2.654;2023-03-01T08:27:15;27.17;60.77
74661;SHT31;63191;39.566;2.654;2023-03-01T08:29:41;27.14;61.94
74661;SHT31;63191;39.566;2.654;2023-03-01T08:32:08;27.26;62.63
74661;SHT31;63191;39.566;2.654;2023-03-01T08:34:34;27.42;62.41
74661;SHT31;63191;39.566;2.654;2023-03-01T08:37:00;26.89;57.64
74661;SHT31;63191;39.566;2.654;2023-03-01T08:39:27;25.40;57.40
74661;SHT31;63191;39.566;2.654;2023-03-01T08:41:53;23.83;57.58
74661;SHT31;63191;39.566;2.654;2023-03-01T08:44:18;22.41;58.59
74661;SHT31;63191;39.566;2.654;2023-03-01T08:46:46;21.26;60.89
74661;SHT31;63191;39.566;2.654;2023-03-01T08:49:15;20.42;62.80
74661;SHT31;63191;39.566;2.654;2023-03-01T08:51:43;19.81;62.62
74661;SHT31;63191;39.566;2.654;2023-03-01T08:54:11;19.13;63.03
74661;SHT31;63191;39.566;2.654;2023-03-01T08:56:45;18.36;64.38
74661;SHT31;63191;39.566;2.654;2023-03-01T08:59:12;17.57;64.81
74661;SHT31;63191;39.566;2.654;2023-03-01T09:01:40;16.84;64.72
74661;SHT31;63191;39.566;2.654;2023-03-01T09:04:08;16.26;65.28
74661;SHT31;63191;39.566;2.654;2023-03-01T09:06:35;16.20;66.69
74661;SHT31;63191;39.566;2.654;2023-03-01T09:09:02;16.22;66.13
74661;SHT31;63191;39.566;2.654;2023-03-01T09:11:29;16.11;67.73
74661;SHT31;63191;39.566;2.654;2023-03-01T09:13:55;16.06;68.57
74661;SHT31;63191;39.566;2.654;2023-03-01T09:16:21;16.06;68.02
74661;SHT31;63191;39.566;2.654;2023-03-01T09:18:51;16.09;64.93
74661;SHT31;63191;39.566;2.654;2023-03-01T09:21:19;16.24;61.12
74661;SHT31;63191;39.566;2.654;2023-03-01T09:23:48;16.67;58.80
74661;SHT31;63191;39.566;2.654;2023-03-01T09:26:16;16.95;56.71
74661;SHT31;63191;39.566;2.654;2023-03-01T09:28:47;16.92;56.44
74661;SHT31;63191;39.566;2.654;2023-03-01T09:31:16;16.77;55.70
74661;SHT31;63191;39.566;2.654;2023-03-01T09:33:47;16.71;55.27
74661;SHT31;63191;39.566;2.654;2023-03-01T09:36:16;16.71;55.43
74661;SHT31;63191;39.566;2.654;2023-03-01T09:38:46;16.84;55.67
74661;SHT31;63191;39.566;2.654;2023-03-01T09:41:26;17.18;55.51
74661;SHT31;63191;39.566;2.654;2023-03-01T09:47:12;17.80;51.91
74661;SHT31;63191;39.566;2.654;2023-03-01T09:53:00;17.61;51.89
74661;SHT31;63191;39.566;2.654;2023-03-01T09:55:31;17.62;51.34
74661;SHT31;63191;39.566;2.654;2023-03-01T10:01:04;17.72;51.07
74661;SHT31;63191;39.566;2.654;2023-03-01T10:03:43;17.77;49.37
74661;SHT31;63191;39.566;2.654;2023-03-01T10:06:23;17.80;48.54
74661;SHT31;63191;39.566;2.654;2023-03-01T10:08:56;17.80;48.22
74661;SHT31;63191;39.566;2.654;2023-03-01T10:11:48;17.93;49.12
74661;SHT31;63191;39.566;2.654;2023-03-01T10:20:20;19.54;50.60
74661;SHT31;63191;39.566;2.654;2023-03-01T10:22:53;20.55;48.88
74661;SHT31;63191;39.566;2.654;2023-03-01T10:28:16;24.26;47.86
74661;SHT31;63191;39.566;2.654;2023-03-01T10:31:24;27.45;44.10
74661;SHT31;63191;39.566;2.654;2023-03-01T10:34:07;29.71;39.81
74661;SHT31;63191;39.566;2.654;2023-03-01T10:36:38;31.49;36.52
74661;SHT31;63191;39.566;2.654;2023-03-01T10:39:17;32.72;34.56
74661;SHT31;63191;39.566;2.654;2023-03-01T10:41:59;32.63;32.51
74661;SHT31;63191;39.566;2.654;2023-03-01T10:47:22;29.73;30.87
74661;SHT31;63191;39.566;2.654;2023-03-01T10:49:56;30.18;31.02
74661;SHT31;63191;39.566;2.654;2023-03-01T10:52:31;29.85;30.82
74661;SHT31;63191;39.566;2.654;2023-03-01T11:00:50;30.52;27.33
74661;SHT31;63191;39.566;2.654;2023-03-01T11:03:23;31.29;25.03
74661;SHT31;63191;39.566;2.654;2023-03-01T11:05:57;31.91;24.77
74661;SHT31;63191;39.566;2.654;2023-03-01T11:08:45;32.62;23.77
74661;SHT31;63191;39.566;2.654;2023-03-01T11:11:18;33.50;22.84
74661;SHT31;63191;39.566;2.654;2023-03-01T11:13:58;33.60;23.48
74661;SHT31;63191;39.566;2.654;2023-03-01T11:16:42;33.67;21.56
74661;SHT31;63191;39.566;2.654;2023-03-01T11:19:15;33.48;22.01
74661;SHT31;63191;39.566;2.654;2023-03-01T11:24:33;32.30;21.98
74661;SHT31;63191;39.566;2.654;2023-03-01T11:27:11;29.87;23.59
74661;SHT31;63191;39.566;2.654;2023-03-01T11:29:40;29.74;24.06
74661;SHT31;63191;39.566;2.654;2023-03-01T11:32:11;29.78;23.85
74661;SHT31;63191;39.566;2.654;2023-03-01T11:34:42;29.60;24.29
74661;SHT31;63191;39.566;2.654;2023-03-01T11:37:33;29.00;25.18
74661;SHT31;63191;39.566;2.654;2023-03-01T11:54:30;27.45;26.43
74661;SHT31;63191;39.566;2.654;2023-03-01T12:00:07;26.05;27.61
74661;SHT31;63191;39.566;2.654;2023-03-01T12:03:26;25.61;28.70
74661;SHT31;63191;39.566;2.654;2023-03-01T12:09:38;25.90;28.11
74661;SHT31;63191;39.566;2.654;2023-03-01T12:12:26;25.83;27.98
74661;SHT31;63191;39.566;2.654;2023-03-01T12:18:01;29.79;26.92
74661;SHT31;63191;39.566;2.654;2023-03-01T12:31:52;37.55;22.22
74661;SHT31;63191;39.566;2.654;2023-03-01T12:37:22;39.71;20.97
74661;SHT31;63191;39.566;2.654;2023-03-01T12:49:39;40.81;19.00
74661;SHT31;63191;39.566;2.654;2023-03-01T12:52:18;41.37;18.47
74661;SHT31;63191;39.566;2.654;2023-03-01T12:55:31;42.17;18.27
74661;SHT31;63191;39.566;2.654;2023-03-01T13:10:36;42.32;16.06
74661;SHT31;63191;39.566;2.654;2023-03-01T13:13:22;41.78;15.79
74661;SHT31;63191;39.566;2.654;2023-03-01T13:15:51;41.30;15.90
74661;SHT31;63191;39.566;2.654;2023-03-01T13:20:48;40.53;16.28
74661;SHT31;63191;39.566;2.654;2023-03-01T13:26:03;39.38;15.68
74661;SHT31;63191;39.566;2.654;2023-03-01T13:31:10;37.83;15.74
74661;SHT31;63191;39.566;2.654;2023-03-01T13:34:04;36.97;16.43
74661;SHT31;63191;39.566;2.654;2023-03-01T13:37:09;36.23;16.36
74661;SHT31;63191;39.566;2.654;2023-03-01T13:39:55;35.57;17.42
74661;SHT31;63191;39.566;2.654;2023-03-01T13:45:14;34.08;17.79
74661;SHT31;63191;39.566;2.654;2023-03-01T13:47:53;33.15;18.20
74661;SHT31;63191;39.566;2.654;2023-03-01T13:50:33;31.89;18.49
74661;SHT31;63191;39.566;2.654;2023-03-01T13:53:10;30.81;19.73
74661;SHT31;63191;39.566;2.654;2023-03-01T13:58:27;29.00;21.63
74661;SHT31;63191;39.566;2.654;2023-03-01T14:00:59;28.11;22.35
74661;SHT31;63191;39.566;2.654;2023-03-01T14:03:29;27.17;22.83
74661;SHT31;63191;39.566;2.654;2023-03-01T14:08:43;25.04;24.19
74661;SHT31;63191;39.566;2.654;2023-03-01T14:11:21;24.04;25.17
74661;SHT31;63191;39.566;2.654;2023-03-01T14:19:33;21.23;28.02
74661;SHT31;63191;39.566;2.654;2023-03-01T14:22:05;20.65;28.68
74661;SHT31;63191;39.566;2.654;2023-03-01T14:25:00;20.15;29.85
74661;SHT31;63191;39.566;2.654;2023-03-01T14:27:38;19.78;30.58
74661;SHT31;63191;39.566;2.654;2023-03-01T14:33:31;19.41;31.88
74661;SHT31;63191;39.566;2.654;2023-03-01T14:36:11;19.20;31.72
74661;SHT31;63191;39.566;2.654;2023-03-01T14:38:42;18.96;32.33
74661;SHT31;63191;39.566;2.654;2023-03-01T14:41:23;18.70;33.04
74661;SHT31;63191;39.566;2.654;2023-03-01T14:43:55;18.51;33.68
74661;SHT31;63191;39.566;2.654;2023-03-01T14:46:31;18.37;33.93
74661;SHT31;63191;39.566;2.654;2023-03-01T14:49:04;18.28;34.07
74661;SHT31;63191;39.566;2.654;2023-03-01T14:51:40;18.20;34.49
74661;SHT31;63191;39.566;2.654;2023-03-01T14:56:51;18.09;35.12
74661;SHT31;63191;39.566;2.654;2023-03-01T14:59:22;18.00;35.30
74661;SHT31;63191;39.566;2.654;2023-03-01T15:01:50;17.93;35.59
74661;SHT31;63191;39.566;2.654;2023-03-01T15:04:20;17.86;35.71
74661;SHT31;63191;39.566;2.654;2023-03-01T15:06:49;17.81;36.01
74661;SHT31;63191;39.566;2.654;2023-03-01T15:09:17;17.77;36.31
74661;SHT31;63191;39.566;2.654;2023-03-01T15:11:44;17.73;36.58
74661;SHT31;63191;39.566;2.654;2023-03-01T15:14:38;17.69;36.98
74661;SHT31;63191;39.566;2.654;2023-03-01T15:17:30;17.65;36.87
74661;SHT31;63191;39.566;2.654;2023-03-01T15:20:00;17.47;36.50
74661;SHT31;63191;39.566;2.654;2023-03-01T15:22:35;17.18;36.79
74661;SHT31;63191;39.566;2.654;2023-03-01T15:25:01;16.91;37.42
74661;SHT31;63191;39.566;2.654;2023-03-01T15:27:27;16.67;37.81
74661;SHT31;63191;39.566;2.654;2023-03-01T15:29:54;16.46;38.46
74661;SHT31;63191;39.566;2.654;2023-03-01T15:32:29;16.33;39.04
74661;SHT31;63191;39.566;2.654;2023-03-01T15:35:32;16.20;38.99
74661;SHT31;63191;39.566;2.654;2023-03-01T15:40:54;15.83;40.16
74661;SHT31;63191;39.566;2.654;2023-03-01T15:46:16;15.55;41.08
74661;SHT31;63191;39.566;2.654;2023-03-01T15:48:50;15.48;41.11
74661;SHT31;63191;39.566;2.654;2023-03-01T15:51:27;15.43;41.55
74661;SHT31;63191;39.566;2.654;2023-03-01T15:54:15;15.41;41.60
74661;SHT31;63191;39.566;2.654;2023-03-01T15:56:44;15.37;41.96
74661;SHT31;63191;39.566;2.654;2023-03-01T15:59:11;15.25;42.03
74661;SHT31;63191;39.566;2.654;2023-03-01T16:01:41;15.06;43.62
74661;SHT31;63191;39.566;2.654;2023-03-01T16:04:11;14.88;44.60
74661;SHT31;63191;39.566;2.654;2023-03-01T16:06:45;14.73;45.04
74661;SHT31;63191;39.566;2.654;2023-03-01T16:09:22;14.59;45.81
74661;SHT31;63191;39.566;2.654;2023-03-01T16:11:49;14.44;45.53
74661;SHT31;63191;39.566;2.654;2023-03-01T16:14:17;14.27;45.78
74661;SHT31;63191;39.566;2.654;2023-03-01T16:16:43;14.15;46.63
74661;SHT31;63191;39.566;2.654;2023-03-01T16:19:10;14.04;47.30
74661;SHT31;63191;39.566;2.654;2023-03-01T16:21:37;13.96;47.76
74661;SHT31;63191;39.566;2.654;2023-03-01T16:24:03;13.86;47.02
74661;SHT31;63191;39.566;2.654;2023-03-01T16:26:30;13.76;47.50
74661;SHT31;63191;39.566;2.654;2023-03-01T16:28:56;13.64;48.52
74661;SHT31;63191;39.566;2.654;2023-03-01T16:31:23;13.54;49.10
74661;SHT31;63191;39.566;2.654;2023-03-01T16:33:55;13.45;49.79
74661;SHT31;63191;39.566;2.654;2023-03-01T16:36:24;13.37;49.62
74661;SHT31;63191;39.566;2.654;2023-03-01T16:38:53;13.25;49.44
74661;SHT31;63191;39.566;2.654;2023-03-01T16:41:22;13.16;49.61
74661;SHT31;63191;39.566;2.654;2023-03-01T16:43:49;13.03;49.60
74661;SHT31;63191;39.566;2.654;2023-03-01T16:46:16;12.90;50.44
74661;SHT31;63191;39.566;2.654;2023-03-01T16:48:46;12.77;51.13
74661;SHT31;63191;39.566;2.654;2023-03-01T16:51:13;12.64;52.04
74661;SHT31;63191;39.566;2.654;2023-03-01T16:53:39;12.51;51.70
74661;SHT31;63191;39.566;2.654;2023-03-01T16:56:07;12.39;52.31
74661;SHT31;63191;39.566;2.654;2023-03-01T16:58:35;12.28;53.00
74661;SHT31;63191;39.566;2.654;2023-03-01T17:01:03;12.16;53.38
74661;SHT31;63191;39.566;2.654;2023-03-01T17:03:34;12.05;53.76
74661;SHT31;63191;39.566;2.654;2023-03-01T17:06:04;11.93;54.10
74661;SHT31;63191;39.566;2.654;2023-03-01T17:08:33;11.83;54.85
74661;SHT31;63191;39.566;2.654;2023-03-01T17:11:03;11.72;55.52
74661;SHT31;63191;39.566;2.654;2023-03-01T17:13:31;11.63;55.49
74661;SHT31;63191;39.566;2.654;2023-03-01T17:15:57;11.54;55.00
74661;SHT31;63191;39.566;2.654;2023-03-01T17:18:23;11.45;54.50
74661;SHT31;63191;39.566;2.654;2023-03-01T17:20:49;11.36;55.37
74661;SHT31;63191;39.566;2.654;2023-03-01T17:23:15;11.28;55.50
74661;SHT31;63191;39.566;2.654;2023-03-01T17:25:41;11.21;55.86
74661;SHT31;63191;39.566;2.654;2023-03-01T17:28:09;11.12;56.19
74661;SHT31;63191;39.566;2.654;2023-03-01T17:30:37;11.05;56.48
74661;SHT31;63191;39.566;2.654;2023-03-01T17:33:06;10.97;56.71
74661;SHT31;63191;39.566;2.654;2023-03-01T17:35:32;10.89;56.93
74661;SHT31;63191;39.566;2.654;2023-03-01T17:38:01;10.81;56.66
74661;SHT31;63191;39.566;2.654;2023-03-01T17:40:28;10.73;56.61
74661;SHT31;63191;39.566;2.654;2023-03-01T17:42:56;10.64;56.78
74661;SHT31;63191;39.566;2.654;2023-03-01T17:45:24;10.56;56.77
74661;SHT31;63191;39.566;2.654;2023-03-01T17:47:50;10.48;56.72
74661;SHT31;63191;39.566;2.654;2023-03-01T17:50:16;10.40;56.94
74661;SHT31;63191;39.566;2.654;2023-03-01T17:52:42;10.32;57.07
74661;SHT31;63191;39.566;2.654;2023-03-01T17:55:08;10.22;57.17
74661;SHT31;63191;39.566;2.654;2023-03-01T17:57:37;10.13;57.32
74661;SHT31;63191;39.566;2.654;2023-03-01T18:00:09;10.02;57.59
74661;SHT31;63191;39.566;2.654;2023-03-01T18:02:37;9.93;57.72
74661;SHT31;63191;39.566;2.654;2023-03-01T18:05:03;9.84;57.81
74661;SHT31;63191;39.566;2.654;2023-03-01T18:07:29;9.76;58.03
74661;SHT31;63191;39.566;2.654;2023-03-01T18:09:55;9.68;58.24
74661;SHT31;63191;39.566;2.654;2023-03-01T18:12:21;9.59;58.40
74661;SHT31;63191;39.566;2.654;2023-03-01T18:14:50;9.50;58.55
74661;SHT31;63191;39.566;2.654;2023-03-01T18:17:20;9.42;58.62
74661;SHT31;63191;39.566;2.654;2023-03-01T18:19:48;9.34;58.88